createdAt,value
2019-01-18T00:01:30.128Z,3.60
2019-01-18T00:04:04.922Z,4.73
2019-01-18T00:06:39.446Z,3.87
2019-01-18T00:09:14.592Z,5.10
2019-01-18T00:11:49.296Z,4.83
2019-01-18T00:14:23.676Z,3.97
2019-01-18T00:16:57.809Z,4.23
2019-01-18T00:19:34.954Z,3.83
2019-01-18T00:22:09.720Z,7.43
2019-01-18T00:24:44.042Z,3.95
2019-01-18T00:27:18.731Z,4.90
2019-01-18T00:29:53.139Z,4.67
2019-01-18T00:32:28.058Z,4.23
2019-01-18T00:35:02.496Z,4.03
2019-01-18T00:37:37.036Z,5.40
2019-01-18T00:40:11.301Z,3.83
2019-01-18T00:42:45.785Z,4.70
2019-01-18T00:45:21.306Z,4.03
2019-01-18T00:47:56.242Z,5.13
2019-01-18T00:50:30.641Z,4.30
2019-01-18T00:53:05.317Z,5.33
2019-01-18T00:55:40.330Z,4.37
2019-01-18T00:58:15.578Z,4.63
2019-01-18T01:00:51.140Z,3.90
2019-01-18T01:03:26.731Z,4.57
2019-01-18T01:06:03.103Z,4.33
2019-01-18T01:08:37.457Z,4.03
2019-01-18T01:11:12.221Z,6.63
2019-01-18T01:13:47.200Z,4.87
2019-01-18T01:16:21.928Z,5.53
2019-01-18T01:18:56.749Z,4.67
2019-01-18T01:21:30.588Z,6.23
2019-01-18T01:24:05.217Z,4.97
2019-01-18T01:26:39.915Z,5.93
2019-01-18T01:29:14.529Z,6.33
2019-01-18T01:31:49.264Z,5.05
2019-01-18T01:34:23.770Z,4.93
2019-01-18T01:36:58.489Z,6.73
2019-01-18T01:39:33.283Z,5.50
2019-01-18T01:42:07.737Z,6.37
2019-01-18T01:44:43.428Z,6.47
2019-01-18T01:47:18.200Z,5.97
2019-01-18T01:49:53.204Z,5.75
2019-01-18T01:52:27.472Z,8.07
2019-01-18T01:55:02.074Z,7.13
2019-01-18T01:57:37.154Z,6.27
2019-01-18T02:00:16.857Z,6.28
2019-01-18T02:02:52.170Z,6.00
2019-01-18T02:05:26.730Z,7.37
2019-01-18T02:08:01.227Z,5.93
2019-01-18T02:10:36.333Z,8.53
2019-01-18T02:13:12.054Z,6.87
2019-01-18T02:15:46.534Z,4.77
2019-01-18T02:18:22.976Z,6.23
2019-01-18T02:20:57.220Z,9.20
2019-01-18T02:23:31.503Z,5.70
2019-01-18T02:26:07.058Z,5.80
2019-01-18T02:28:41.512Z,8.23
2019-01-18T02:31:16.130Z,6.87
2019-01-18T02:33:50.190Z,6.73
2019-01-18T02:36:25.043Z,5.47
2019-01-18T02:38:59.407Z,6.00
2019-01-18T02:41:33.793Z,5.60
2019-01-18T02:44:08.175Z,6.13
2019-01-18T02:46:42.450Z,5.80
2019-01-18T02:49:17.065Z,6.07
2019-01-18T02:51:51.789Z,9.03
2019-01-18T02:54:26.704Z,6.10
2019-01-18T02:57:01.034Z,6.07
2019-01-18T02:59:35.905Z,6.13
2019-01-18T03:02:10.687Z,6.20
2019-01-18T03:04:45.243Z,10.50
2019-01-18T03:07:19.896Z,7.40
2019-01-18T03:09:54.290Z,6.03
2019-01-18T03:12:28.915Z,5.53
2019-01-18T03:15:03.409Z,6.20
2019-01-18T03:17:38.334Z,7.30
2019-01-18T03:20:14.056Z,6.10
2019-01-18T03:22:48.458Z,8.23
2019-01-18T03:25:31.022Z,5.43
2019-01-18T03:28:05.588Z,5.50
2019-01-18T03:30:40.198Z,5.75
2019-01-18T03:33:14.918Z,7.03
2019-01-18T03:35:49.612Z,5.33
2019-01-18T03:38:24.461Z,5.67
2019-01-18T03:40:58.964Z,5.37
2019-01-18T03:43:33.351Z,6.30
2019-01-18T03:46:07.773Z,5.90
2019-01-18T03:48:42.472Z,7.40
2019-01-18T03:51:17.073Z,5.73
2019-01-18T03:53:51.332Z,7.13
2019-01-18T03:56:25.285Z,8.40
2019-01-18T03:59:00.334Z,5.93
2019-01-18T04:01:34.957Z,7.73
2019-01-18T04:04:10.877Z,6.30
2019-01-18T04:06:46.041Z,5.90
2019-01-18T04:09:20.691Z,6.22
2019-01-18T04:11:54.458Z,6.90
2019-01-18T04:14:30.345Z,6.37
2019-01-18T04:17:05.165Z,7.90
2019-01-18T04:19:39.435Z,6.80
2019-01-18T04:22:14.043Z,7.23
2019-01-18T04:24:48.658Z,7.50
2019-01-18T04:27:23.196Z,6.90
2019-01-18T04:29:57.790Z,7.10
2019-01-18T04:32:32.480Z,6.83
2019-01-18T04:35:07.231Z,6.87
2019-01-18T04:37:41.462Z,6.83
2019-01-18T04:40:19.123Z,7.57
2019-01-18T04:42:53.141Z,6.23
2019-01-18T04:45:28.523Z,6.43
2019-01-18T04:48:03.077Z,6.20
2019-01-18T04:50:37.383Z,6.77
2019-01-18T04:53:12.108Z,6.92
2019-01-18T04:55:46.529Z,7.40
2019-01-18T04:58:21.063Z,6.20
2019-01-18T05:00:55.768Z,6.93
2019-01-18T05:03:30.981Z,7.43
2019-01-18T05:06:06.082Z,6.50
2019-01-18T05:08:41.348Z,6.70
2019-01-18T05:11:16.052Z,6.10
2019-01-18T05:13:50.423Z,6.40
2019-01-18T05:16:25.590Z,6.37
2019-01-18T05:18:59.986Z,9.57
2019-01-18T05:21:34.593Z,6.50
2019-01-18T05:24:09.173Z,7.00
2019-01-18T05:26:44.070Z,7.28
2019-01-18T05:29:18.675Z,6.57
2019-01-18T05:31:53.026Z,6.33
2019-01-18T05:34:27.154Z,6.73
2019-01-18T05:37:01.718Z,6.37
2019-01-18T05:39:36.673Z,7.08
2019-01-18T05:42:11.225Z,6.43
2019-01-18T05:44:45.868Z,6.37
2019-01-18T05:47:21.006Z,6.97
2019-01-18T05:49:55.260Z,7.37
2019-01-18T05:52:29.975Z,6.17
2019-01-18T05:55:04.727Z,7.25
2019-01-18T05:57:39.110Z,6.53
2019-01-18T06:00:24.395Z,6.00
2019-01-18T06:02:59.249Z,6.28
2019-01-18T06:05:34.043Z,6.20
2019-01-18T06:08:09.235Z,6.43
2019-01-18T06:10:44.346Z,6.67
2019-01-18T06:13:18.399Z,6.40
2019-01-18T06:15:53.301Z,6.00
2019-01-18T06:18:27.967Z,6.27
2019-01-18T06:21:02.584Z,5.90
2019-01-18T06:23:37.082Z,6.43
2019-01-18T06:26:12.079Z,6.00
2019-01-18T06:28:46.462Z,6.83
2019-01-18T06:31:20.649Z,6.08
2019-01-18T06:33:55.377Z,6.30
2019-01-18T06:36:30.469Z,5.67
2019-01-18T06:39:05.765Z,6.47
2019-01-18T06:41:48.720Z,6.23
2019-01-18T06:44:23.481Z,5.70
2019-01-18T06:46:58.088Z,6.77
2019-01-18T06:49:32.187Z,6.80
2019-01-18T06:52:07.341Z,6.15
2019-01-18T06:54:41.226Z,7.85
2019-01-18T06:57:15.729Z,5.53
2019-01-18T06:59:50.200Z,5.87
2019-01-18T07:02:25.840Z,6.47
2019-01-18T07:05:00.355Z,6.30
2019-01-18T07:07:35.898Z,6.17
2019-01-18T07:10:11.728Z,6.42
2019-01-18T07:12:47.018Z,5.83
2019-01-18T07:15:21.776Z,5.67
2019-01-18T07:17:55.679Z,6.15
2019-01-18T07:20:30.445Z,6.35
2019-01-18T07:23:04.288Z,5.55
2019-01-18T07:25:38.762Z,6.13
2019-01-18T07:28:13.585Z,6.63
2019-01-18T07:30:49.008Z,6.00
2019-01-18T07:33:22.741Z,7.40
2019-01-18T07:35:57.140Z,5.83
2019-01-18T07:38:31.834Z,6.20
2019-01-18T07:41:06.341Z,5.70
2019-01-18T07:43:41.396Z,6.70
2019-01-18T07:46:16.237Z,5.70
2019-01-18T07:48:50.540Z,6.92
2019-01-18T07:51:26.286Z,5.97
2019-01-18T07:54:00.577Z,6.58
2019-01-18T07:56:34.666Z,6.17
2019-01-18T07:59:11.675Z,6.80
2019-01-18T08:01:45.965Z,6.15
2019-01-18T08:04:20.640Z,7.08
2019-01-18T08:06:54.819Z,6.87
2019-01-18T08:09:29.617Z,7.03
2019-01-18T08:12:04.020Z,6.27
2019-01-18T08:14:38.688Z,7.17
2019-01-18T08:17:14.128Z,7.20
2019-01-18T08:19:48.544Z,7.07
2019-01-18T08:22:23.228Z,6.67
2019-01-18T08:24:57.686Z,6.80
2019-01-18T08:27:33.066Z,6.73
2019-01-18T08:30:09.196Z,6.90
2019-01-18T08:32:43.684Z,7.03
2019-01-18T08:35:19.538Z,7.35
2019-01-18T08:37:54.178Z,6.75
2019-01-18T08:40:36.290Z,6.47
2019-01-18T08:43:15.344Z,6.53
2019-01-18T08:45:52.083Z,6.87
2019-01-18T08:48:25.966Z,6.17
2019-01-18T08:51:00.698Z,6.78
2019-01-18T08:53:35.147Z,6.50
2019-01-18T08:56:10.331Z,6.60
2019-01-18T08:58:47.807Z,5.97
2019-01-18T09:01:22.151Z,6.83
2019-01-18T09:03:56.229Z,8.93
2019-01-18T09:06:31.229Z,6.72
2019-01-18T09:09:05.641Z,6.80
2019-01-18T09:11:40.082Z,7.05
2019-01-18T09:14:19.413Z,6.40
2019-01-18T09:16:50.518Z,6.33
2019-01-18T09:19:25.287Z,6.62
2019-01-18T09:21:59.278Z,6.25
2019-01-18T09:24:33.663Z,6.83
2019-01-18T09:27:08.812Z,6.30
2019-01-18T09:29:43.355Z,8.95
2019-01-18T09:32:18.061Z,5.72
2019-01-18T09:34:52.355Z,6.60
2019-01-18T09:37:26.586Z,6.08
2019-01-18T09:40:01.420Z,6.53
2019-01-18T09:42:35.603Z,6.10
2019-01-18T09:45:11.064Z,6.42
2019-01-18T09:47:45.216Z,6.45
2019-01-18T09:50:23.054Z,6.30
2019-01-18T09:52:57.413Z,6.25
2019-01-18T09:55:32.006Z,6.47
2019-01-18T09:58:06.310Z,6.10
2019-01-18T10:00:41.954Z,5.58
2019-01-18T10:03:16.354Z,5.87
2019-01-18T10:05:51.319Z,6.25
2019-01-18T10:08:25.881Z,6.85
2019-01-18T10:11:00.340Z,6.72
2019-01-18T10:13:34.712Z,5.72
2019-01-18T10:16:08.891Z,6.35
2019-01-18T10:18:43.978Z,6.35
2019-01-18T10:21:17.974Z,6.00
2019-01-18T10:23:52.693Z,6.37
2019-01-18T10:26:27.467Z,6.87
2019-01-18T10:29:02.134Z,6.55
2019-01-18T10:31:36.839Z,6.73
2019-01-18T10:34:10.984Z,6.47
2019-01-18T10:36:45.459Z,6.92
2019-01-18T10:39:20.547Z,7.05
2019-01-18T10:41:55.009Z,6.92
2019-01-18T10:44:29.878Z,7.03
2019-01-18T10:47:04.244Z,7.05
2019-01-18T10:49:40.609Z,6.60
2019-01-18T10:52:15.206Z,7.13
2019-01-18T10:54:50.313Z,6.97
2019-01-18T10:57:25.351Z,7.05
2019-01-18T11:00:00.233Z,6.20
2019-01-18T11:02:34.655Z,6.60
2019-01-18T11:05:09.383Z,6.63
2019-01-18T11:07:43.675Z,6.40
2019-01-18T11:10:18.538Z,6.83
2019-01-18T11:12:53.278Z,6.00
2019-01-18T11:15:29.620Z,6.87
2019-01-18T11:18:04.088Z,6.45
2019-01-18T11:20:45.011Z,7.28
2019-01-18T11:23:19.965Z,6.55
2019-01-18T11:25:54.350Z,6.40
2019-01-18T11:28:29.082Z,6.37
2019-01-18T11:31:03.481Z,6.22
2019-01-18T11:33:37.720Z,6.37
2019-01-18T11:36:12.291Z,6.03
2019-01-18T11:38:47.321Z,6.50
2019-01-18T11:41:21.602Z,6.50
2019-01-18T11:43:56.609Z,6.40
2019-01-18T11:46:31.039Z,5.75
2019-01-18T11:49:05.487Z,6.53
2019-01-18T11:51:40.198Z,8.10
2019-01-18T11:54:15.007Z,6.42
2019-01-18T11:56:49.825Z,7.37
2019-01-18T11:59:25.250Z,7.13
2019-01-18T12:02:00.057Z,7.43
2019-01-18T12:04:34.680Z,6.87
2019-01-18T12:07:09.633Z,6.92
2019-01-18T12:09:44.136Z,7.53
2019-01-18T12:12:18.937Z,8.65
2019-01-18T12:14:53.535Z,7.17
2019-01-18T12:17:28.260Z,7.22
2019-01-18T12:20:02.493Z,6.95
2019-01-18T12:22:37.220Z,7.00
2019-01-18T12:25:12.394Z,6.70
2019-01-18T12:27:47.092Z,7.77
2019-01-18T12:30:24.292Z,6.17
2019-01-18T12:32:58.999Z,5.87
2019-01-18T12:35:33.722Z,6.93
2019-01-18T12:38:08.153Z,6.87
2019-01-18T12:40:42.637Z,6.97
2019-01-18T12:43:17.646Z,7.07
2019-01-18T12:45:51.967Z,6.13
2019-01-18T12:48:26.462Z,7.07
2019-01-18T12:51:01.037Z,7.07
2019-01-18T12:53:35.814Z,7.40
2019-01-18T12:56:10.383Z,7.53
2019-01-18T12:58:44.924Z,6.53
2019-01-18T13:01:20.124Z,6.00
2019-01-18T13:03:55.391Z,7.10
2019-01-18T13:06:30.093Z,6.43
2019-01-18T13:09:05.509Z,7.13
2019-01-18T13:11:40.131Z,6.90
2019-01-18T13:14:13.959Z,7.00
2019-01-18T13:16:50.432Z,7.17
2019-01-18T13:19:28.790Z,7.30
2019-01-18T13:22:03.518Z,6.87
2019-01-18T13:24:37.967Z,7.13
2019-01-18T13:27:12.361Z,7.57
2019-01-18T13:29:46.996Z,7.43
2019-01-18T13:32:21.420Z,7.43
2019-01-18T13:34:56.568Z,7.30
2019-01-18T13:37:30.739Z,7.00
2019-01-18T13:40:06.358Z,7.43
2019-01-18T13:42:41.222Z,6.63
2019-01-18T13:45:16.251Z,7.43
2019-01-18T13:47:50.980Z,7.23
2019-01-18T13:50:25.588Z,6.97
2019-01-18T13:53:02.036Z,7.10
2019-01-18T13:55:36.675Z,7.57
2019-01-18T13:58:10.652Z,7.70
2019-01-18T14:00:45.184Z,7.40
2019-01-18T14:03:20.476Z,7.90
2019-01-18T14:05:55.194Z,7.47
2019-01-18T14:08:29.666Z,7.93
2019-01-18T14:11:05.182Z,7.53
2019-01-18T14:13:39.195Z,7.00
2019-01-18T14:16:13.783Z,7.40
2019-01-18T14:18:48.009Z,7.67
2019-01-18T14:21:22.497Z,7.53
2019-01-18T14:23:57.392Z,6.93
2019-01-18T14:26:31.818Z,7.73
2019-01-18T14:29:06.205Z,7.60
2019-01-18T14:31:40.818Z,8.13
2019-01-18T14:34:15.038Z,8.40
2019-01-18T14:36:49.840Z,7.17
2019-01-18T14:39:24.691Z,8.10
2019-01-18T14:41:59.288Z,8.65
2019-01-18T14:44:34.275Z,8.00
2019-01-18T14:47:08.852Z,8.20
2019-01-18T14:49:43.491Z,8.30
2019-01-18T14:52:18.242Z,8.07
2019-01-18T14:54:52.750Z,8.60
2019-01-18T14:57:27.236Z,8.35
2019-01-18T15:00:01.742Z,8.27
2019-01-18T15:02:36.236Z,8.85
2019-01-18T15:05:11.797Z,8.33
2019-01-18T15:07:46.668Z,8.63
2019-01-18T15:10:22.726Z,9.33
2019-01-18T15:12:59.845Z,9.17
2019-01-18T15:15:34.380Z,8.03
2019-01-18T15:18:08.464Z,9.30
2019-01-18T15:20:42.963Z,9.97
2019-01-18T15:23:18.182Z,8.40
2019-01-18T15:25:52.864Z,9.20
2019-01-18T15:28:27.402Z,9.37
2019-01-18T15:31:01.778Z,9.07
2019-01-18T15:33:36.544Z,8.47
2019-01-18T15:36:11.570Z,8.97
2019-01-18T15:38:46.256Z,8.40
2019-01-18T15:41:21.079Z,9.17
2019-01-18T15:43:55.353Z,8.90
2019-01-18T15:46:29.893Z,9.20
2019-01-18T15:49:04.432Z,9.03
2019-01-18T15:51:38.924Z,9.43
2019-01-18T15:54:13.015Z,8.98
2019-01-18T15:56:47.451Z,9.63
2019-01-18T15:59:22.119Z,9.50
2019-01-18T16:01:57.070Z,8.57
2019-01-18T16:04:32.036Z,10.20
2019-01-18T16:07:06.560Z,10.15
2019-01-18T16:09:41.142Z,10.07
2019-01-18T16:12:15.522Z,9.63
2019-01-18T16:14:50.457Z,10.30
2019-01-18T16:17:31.652Z,10.00
2019-01-18T16:20:06.637Z,10.13
2019-01-18T16:22:41.533Z,10.00
2019-01-18T16:25:20.121Z,9.60
2019-01-18T16:27:54.816Z,10.45
2019-01-18T16:30:29.720Z,10.30
2019-01-18T16:33:04.403Z,10.53
2019-01-18T16:35:39.310Z,9.95
2019-01-18T16:38:14.588Z,10.20
2019-01-18T16:40:49.638Z,10.27
2019-01-18T16:43:29.899Z,10.28
2019-01-18T16:46:05.215Z,10.30
2019-01-18T16:48:39.737Z,9.90
2019-01-18T16:51:14.439Z,10.00
2019-01-18T16:53:48.956Z,10.63
2019-01-18T16:56:23.208Z,10.30
2019-01-18T16:58:57.615Z,10.68
2019-01-18T17:01:31.745Z,11.20
2019-01-18T17:04:05.697Z,9.83
2019-01-18T17:06:40.420Z,9.95
2019-01-18T17:09:15.047Z,10.23
2019-01-18T17:11:49.108Z,10.57
2019-01-18T17:14:23.489Z,11.30
2019-01-18T17:16:58.545Z,10.47
2019-01-18T17:19:32.980Z,9.73
2019-01-18T17:22:08.133Z,9.83
2019-01-18T17:24:42.589Z,11.08
2019-01-18T17:27:17.291Z,9.70
2019-01-18T17:29:52.454Z,9.93
2019-01-18T17:32:26.978Z,11.13
2019-01-18T17:35:01.396Z,11.37
2019-01-18T17:37:40.578Z,10.13
2019-01-18T17:40:47.685Z,11.07
2019-01-18T17:43:56.090Z,10.68
2019-01-18T17:46:55.785Z,10.27
2019-01-18T17:50:19.358Z,10.03
2019-01-18T17:53:12.780Z,10.03
2019-01-18T17:56:26.855Z,10.17
2019-01-18T17:59:28.614Z,10.70
2019-01-18T18:02:40.849Z,10.33
2019-01-18T18:06:06.777Z,10.27
2019-01-18T18:09:10.763Z,9.60
2019-01-18T18:12:22.980Z,10.07
2019-01-18T18:15:18.209Z,9.80
2019-01-18T18:18:25.030Z,9.93
2019-01-18T18:21:33.324Z,9.73
2019-01-18T18:24:41.233Z,9.87
2019-01-18T18:27:57.994Z,10.23
2019-01-18T18:31:05.850Z,10.58
2019-01-18T18:34:25.356Z,10.13
2019-01-18T18:37:35.380Z,10.00
2019-01-18T18:40:48.482Z,11.30
2019-01-18T18:44:11.274Z,10.43
2019-01-18T18:47:27.318Z,11.13
2019-01-18T18:50:38.105Z,10.60
2019-01-18T18:53:56.321Z,11.63
2019-01-18T18:56:57.667Z,10.23
2019-01-18T18:59:46.280Z,10.65
2019-01-18T19:02:35.896Z,10.23
2019-01-18T19:06:12.423Z,10.17
2019-01-18T19:09:41.937Z,11.20
2019-01-18T19:12:43.972Z,10.67
2019-01-18T19:15:41.692Z,10.60
2019-01-18T19:18:51.499Z,11.20
2019-01-18T19:21:51.690Z,9.90
2019-01-18T19:25:04.747Z,10.67
2019-01-18T19:28:16.855Z,11.33
2019-01-18T19:31:06.024Z,10.63
2019-01-18T19:34:04.185Z,10.77
2019-01-18T19:36:44.167Z,11.18
2019-01-18T19:39:45.094Z,11.23
2019-01-18T19:43:00.410Z,10.73
2019-01-18T19:46:07.411Z,11.87
2019-01-18T19:49:36.443Z,10.97
2019-01-18T19:52:56.784Z,10.60
2019-01-18T19:56:18.447Z,10.23
2019-01-18T19:59:25.866Z,10.13
2019-01-18T20:02:29.500Z,10.25
2019-01-18T20:05:47.624Z,9.87
2019-01-18T20:09:08.466Z,10.43
2019-01-18T20:12:43.709Z,11.75
2019-01-18T20:15:55.317Z,10.70
2019-01-18T20:19:07.530Z,10.60
2019-01-18T20:22:12.507Z,10.17
2019-01-18T20:25:28.254Z,9.53
2019-01-18T20:28:48.511Z,11.10
2019-01-18T20:31:49.555Z,11.20
2019-01-18T20:35:24.779Z,11.17
2019-01-18T20:38:54.736Z,11.43
2019-01-18T20:42:06.489Z,10.57
2019-01-18T20:45:15.954Z,10.63
2019-01-18T20:48:11.862Z,11.70
2019-01-18T20:51:21.441Z,11.07
2019-01-18T20:54:32.170Z,12.10
2019-01-18T20:57:24.933Z,11.40
2019-01-18T21:00:28.863Z,12.00
2019-01-18T21:03:29.413Z,10.97
2019-01-18T21:06:34.726Z,11.83
2019-01-18T21:09:44.888Z,11.47
2019-01-18T21:13:04.850Z,12.00
2019-01-18T21:16:27.982Z,11.70
2019-01-18T21:19:26.966Z,10.87
2019-01-18T21:22:38.257Z,11.67
2019-01-18T21:25:49.511Z,11.20
2019-01-18T21:28:56.229Z,10.70
2019-01-18T21:32:25.273Z,11.67
2019-01-18T21:35:31.351Z,11.67
2019-01-18T21:38:31.806Z,10.13
2019-01-18T21:41:18.783Z,10.77
2019-01-18T21:44:43.744Z,11.63
2019-01-18T21:47:41.614Z,11.30
2019-01-18T21:50:51.599Z,11.77
2019-01-18T21:53:58.189Z,11.00
2019-01-18T21:56:55.287Z,10.80
2019-01-18T22:00:23.339Z,10.53
2019-01-18T22:03:25.271Z,10.40
2019-01-18T22:06:44.238Z,11.70
2019-01-18T22:09:31.932Z,10.70
2019-01-18T22:12:57.431Z,10.07
2019-01-18T22:15:47.957Z,10.73
2019-01-18T22:19:02.448Z,10.40
2019-01-18T22:22:31.296Z,11.63
2019-01-18T22:25:30.715Z,10.63
2019-01-18T22:28:16.340Z,11.67
2019-01-18T22:31:25.501Z,10.60
2019-01-18T22:34:24.551Z,11.13
2019-01-18T22:37:24.038Z,10.47
2019-01-18T22:40:22.837Z,10.33
2019-01-18T22:43:45.802Z,9.90
2019-01-18T22:46:48.084Z,11.00
2019-01-18T22:49:39.794Z,9.67
2019-01-18T22:52:47.647Z,9.40
2019-01-18T22:55:50.526Z,10.57
2019-01-18T22:59:00.900Z,9.77
2019-01-18T23:01:45.601Z,10.37
2019-01-18T23:04:59.593Z,10.30
2019-01-18T23:08:09.138Z,10.23
2019-01-18T23:11:18.114Z,9.70
2019-01-18T23:14:22.196Z,10.10
2019-01-18T23:17:44.344Z,9.43
2019-01-18T23:20:53.249Z,9.63
2019-01-18T23:24:19.004Z,9.97
2019-01-18T23:27:18.233Z,8.83
2019-01-18T23:30:15.863Z,10.13
2019-01-18T23:33:27.958Z,9.93
2019-01-18T23:36:40.602Z,9.87
2019-01-18T23:39:46.818Z,11.20
2019-01-18T23:42:54.653Z,9.37
2019-01-18T23:45:55.495Z,8.73
2019-01-18T23:49:12.678Z,9.57
2019-01-18T23:52:31.782Z,10.47
2019-01-18T23:55:39.766Z,9.30
2019-01-18T23:58:52.427Z,9.57
